Terminal Aerodrome Forecast
Issued by NWS Sterling, VA

Home | Current Version | Previous Version | Text Only | Print | Product List | Glossary On
Versions: 1 2 3 4 5 6 7 8 9 10 11 12 13 14 15
000
FTUS41 KLWX 272300 RRA
TAFCHO
TAF
KCHO 272342Z 2800/2824 VRB03KT P6SM SCT200
     FM280400 VRB03KT P6SM BKN100
     FM281400 VRB03KT P6SM -RA OVC070
     FM281700 00000KT 3SM -RA OVC035
     FM282100 00000KT 3SM -RA OVC010=

USA.gov is the U.S. government's official web portal to all federal, state and local government web resources and services.